sensor_id;sensor_type;location;lat;lon;timestamp;temperature;humidity
58666;DHT22;44436;52.872;6.520;2022-09-09T09:33:47;18.50;99.90
58666;DHT22;44436;52.872;6.520;2022-09-09T09:36:15;18.60;99.90
58666;DHT22;44436;52.872;6.520;2022-09-09T09:38:56;18.60;99.90
58666;DHT22;44436;52.872;6.520;2022-09-09T09:41:36;18.70;99.90
58666;DHT22;44436;52.872;6.520;2022-09-09T09:44:05;18.60;99.90
58666;DHT22;44436;52.872;6.520;2022-09-09T09:46:31;18.60;99.90
58666;DHT22;44436;52.872;6.520;2022-09-09T09:49:10;18.70;99.90
58666;DHT22;44436;52.872;6.520;2022-09-09T09:51:35;18.70;99.90
58666;DHT22;44436;52.872;6.520;2022-09-09T09:56:41;18.80;99.90
58666;DHT22;44436;52.872;6.520;2022-09-09T10:01:53;18.90;99.90
58666;DHT22;44436;52.872;6.520;2022-09-09T10:04:21;19.00;99.90
58666;DHT22;44436;52.872;6.520;2022-09-09T10:06:50;19.00;99.90
58666;DHT22;44436;52.872;6.520;2022-09-09T10:09:28;18.90;99.80
58666;DHT22;44436;52.872;6.520;2022-09-09T10:20:32;19.20;99.90
58666;DHT22;44436;52.872;6.520;2022-09-09T10:25:59;19.20;98.40
58666;DHT22;44436;52.872;6.520;2022-09-09T10:28:41;19.20;98.80
58666;DHT22;44436;52.872;6.520;2022-09-09T10:31:22;19.10;98.30
58666;DHT22;44436;52.872;6.520;2022-09-09T10:36:31;19.10;98.70
58666;DHT22;44436;52.872;6.520;2022-09-09T10:39:01;19.20;98.70
58666;DHT22;44436;52.872;6.520;2022-09-09T10:44:32;19.40;98.40
58666;DHT22;44436;52.872;6.520;2022-09-09T10:49:36;19.50;98.20
58666;DHT22;44436;52.872;6.520;2022-09-09T10:54:58;19.50;98.00
58666;DHT22;44436;52.872;6.520;2022-09-09T10:59:56;19.50;97.80
58666;DHT22;44436;52.872;6.520;2022-09-09T11:02:30;19.50;97.60
58666;DHT22;44436;52.872;6.520;2022-09-09T11:04:58;19.50;97.70
58666;DHT22;44436;52.872;6.520;2022-09-09T11:07:44;19.40;98.20
58666;DHT22;44436;52.872;6.520;2022-09-09T11:13:03;19.40;98.30
58666;DHT22;44436;52.872;6.520;2022-09-09T11:15:42;19.40;98.30
58666;DHT22;44436;52.872;6.520;2022-09-09T11:18:21;19.40;98.10
58666;DHT22;44436;52.872;6.520;2022-09-09T11:20:54;19.50;97.50
58666;DHT22;44436;52.872;6.520;2022-09-09T11:23:40;19.40;97.40
58666;DHT22;44436;52.872;6.520;2022-09-09T11:26:08;19.40;97.60
58666;DHT22;44436;52.872;6.520;2022-09-09T11:28:58;19.50;97.40
58666;DHT22;44436;52.872;6.520;2022-09-09T11:40:06;19.40;97.50
58666;DHT22;44436;52.872;6.520;2022-09-09T11:42:34;19.30;97.40
58666;DHT22;44436;52.872;6.520;2022-09-09T11:45:19;19.20;98.00
58666;DHT22;44436;52.872;6.520;2022-09-09T11:47:54;19.20;98.40
58666;DHT22;44436;52.872;6.520;2022-09-09T11:52:47;19.10;98.70
58666;DHT22;44436;52.872;6.520;2022-09-09T11:55:28;19.10;98.70
58666;DHT22;44436;52.872;6.520;2022-09-09T11:58:15;19.20;98.40
58666;DHT22;44436;52.872;6.520;2022-09-09T12:03:33;19.40;98.60
58666;DHT22;44436;52.872;6.520;2022-09-09T12:06:16;19.60;97.80
58666;DHT22;44436;52.872;6.520;2022-09-09T12:08:45;19.80;97.40
58666;DHT22;44436;52.872;6.520;2022-09-09T12:11:24;19.90;97.60
58666;DHT22;44436;52.872;6.520;2022-09-09T12:13:56;20.00;96.80
58666;DHT22;44436;52.872;6.520;2022-09-09T12:16:31;20.00;96.80
58666;DHT22;44436;52.872;6.520;2022-09-09T12:24:27;20.30;96.10
58666;DHT22;44436;52.872;6.520;2022-09-09T12:27:07;20.40;96.00
58666;DHT22;44436;52.872;6.520;2022-09-09T12:32:20;20.30;95.50
58666;DHT22;44436;52.872;6.520;2022-09-09T12:35:07;20.30;95.30
58666;DHT22;44436;52.872;6.520;2022-09-09T12:40:24;20.20;95.20
58666;DHT22;44436;52.872;6.520;2022-09-09T12:42:50;20.30;95.50
58666;DHT22;44436;52.872;6.520;2022-09-09T12:50:31;20.80;94.50
58666;DHT22;44436;52.872;6.520;2022-09-09T12:53:15;20.70;94.50
58666;DHT22;44436;52.872;6.520;2022-09-09T12:55:51;20.60;94.80
58666;DHT22;44436;52.872;6.520;2022-09-09T12:58:18;20.50;95.40
58666;DHT22;44436;52.872;6.520;2022-09-09T13:00:50;20.40;96.20
58666;DHT22;44436;52.872;6.520;2022-09-09T13:03:19;20.50;96.50
58666;DHT22;44436;52.872;6.520;2022-09-09T13:05:46;20.60;96.30
58666;DHT22;44436;52.872;6.520;2022-09-09T13:08:13;20.70;95.70
58666;DHT22;44436;52.872;6.520;2022-09-09T13:13:15;20.90;94.60
58666;DHT22;44436;52.872;6.520;2022-09-09T13:15:52;20.90;94.30
58666;DHT22;44436;52.872;6.520;2022-09-09T13:18:22;20.80;94.80
58666;DHT22;44436;52.872;6.520;2022-09-09T13:20:49;20.80;94.80
58666;DHT22;44436;52.872;6.520;2022-09-09T13:23:18;20.80;94.90
58666;DHT22;44436;52.872;6.520;2022-09-09T13:25:59;20.80;94.90
58666;DHT22;44436;52.872;6.520;2022-09-09T13:28:30;20.70;94.40
58666;DHT22;44436;52.872;6.520;2022-09-09T13:31:03;20.60;94.30
58666;DHT22;44436;52.872;6.520;2022-09-09T13:33:33;20.60;94.30
58666;DHT22;44436;52.872;6.520;2022-09-09T13:38:25;20.60;93.40
58666;DHT22;44436;52.872;6.520;2022-09-09T13:40:58;20.60;93.50
58666;DHT22;44436;52.872;6.520;2022-09-09T13:43:25;20.60;93.30
58666;DHT22;44436;52.872;6.520;2022-09-09T13:45:57;20.50;93.20
58666;DHT22;44436;52.872;6.520;2022-09-09T13:48:23;20.40;93.10
58666;DHT22;44436;52.872;6.520;2022-09-09T13:50:57;20.10;93.80
58666;DHT22;44436;52.872;6.520;2022-09-09T13:53:22;19.70;94.70
58666;DHT22;44436;52.872;6.520;2022-09-09T13:55:48;19.40;96.20
58666;DHT22;44436;52.872;6.520;2022-09-09T13:58:17;19.20;96.60
58666;DHT22;44436;52.872;6.520;2022-09-09T14:00:47;19.20;97.20
58666;DHT22;44436;52.872;6.520;2022-09-09T14:03:13;19.20;98.20
58666;DHT22;44436;52.872;6.520;2022-09-09T14:05:39;19.40;98.70
58666;DHT22;44436;52.872;6.520;2022-09-09T14:08:06;19.80;98.50
58666;DHT22;44436;52.872;6.520;2022-09-09T14:10:32;20.20;98.60
58666;DHT22;44436;52.872;6.520;2022-09-09T14:12:57;20.40;97.90
58666;DHT22;44436;52.872;6.520;2022-09-09T14:15:23;20.60;97.60
58666;DHT22;44436;52.872;6.520;2022-09-09T14:17:49;20.60;97.00
58666;DHT22;44436;52.872;6.520;2022-09-09T14:20:14;20.80;97.10
58666;DHT22;44436;52.872;6.520;2022-09-09T14:22:41;21.10;96.90
58666;DHT22;44436;52.872;6.520;2022-09-09T14:25:07;21.30;96.40
58666;DHT22;44436;52.872;6.520;2022-09-09T14:27:33;21.40;95.30
58666;DHT22;44436;52.872;6.520;2022-09-09T14:29:59;21.40;94.80
58666;DHT22;44436;52.872;6.520;2022-09-09T14:32:26;21.40;94.50
58666;DHT22;44436;52.872;6.520;2022-09-09T14:34:52;21.30;94.30
58666;DHT22;44436;52.872;6.520;2022-09-09T14:37:19;21.20;94.00
58666;DHT22;44436;52.872;6.520;2022-09-09T14:39:45;21.10;94.10
58666;DHT22;44436;52.872;6.520;2022-09-09T14:42:12;21.00;94.40
58666;DHT22;44436;52.872;6.520;2022-09-09T14:44:38;21.10;94.60
58666;DHT22;44436;52.872;6.520;2022-09-09T14:47:07;21.40;94.60
58666;DHT22;44436;52.872;6.520;2022-09-09T14:49:34;21.70;94.40
58666;DHT22;44436;52.872;6.520;2022-09-09T14:52:00;21.70;93.40
58666;DHT22;44436;52.872;6.520;2022-09-09T14:54:26;21.60;93.30
58666;DHT22;44436;52.872;6.520;2022-09-09T14:56:52;21.50;93.20
58666;DHT22;44436;52.872;6.520;2022-09-09T14:59:17;21.50;93.30
58666;DHT22;44436;52.872;6.520;2022-09-09T15:01:43;21.50;93.30
58666;DHT22;44436;52.872;6.520;2022-09-09T15:04:12;21.40;93.20
58666;DHT22;44436;52.872;6.520;2022-09-09T15:06:39;21.50;93.20
58666;DHT22;44436;52.872;6.520;2022-09-09T15:09:06;21.40;93.10
58666;DHT22;44436;52.872;6.520;2022-09-09T15:11:37;21.40;93.30
58666;DHT22;44436;52.872;6.520;2022-09-09T15:14:04;21.40;92.80
58666;DHT22;44436;52.872;6.520;2022-09-09T15:16:30;21.40;92.80
58666;DHT22;44436;52.872;6.520;2022-09-09T15:18:58;21.40;92.90
58666;DHT22;44436;52.872;6.520;2022-09-09T15:21:29;21.30;93.00
58666;DHT22;44436;52.872;6.520;2022-09-09T15:23:56;21.10;93.20
58666;DHT22;44436;52.872;6.520;2022-09-09T15:26:22;21.00;93.30
58666;DHT22;44436;52.872;6.520;2022-09-09T15:28:48;21.00;93.60
58666;DHT22;44436;52.872;6.520;2022-09-09T15:31:20;20.90;93.60
58666;DHT22;44436;52.872;6.520;2022-09-09T15:33:50;20.80;93.60
58666;DHT22;44436;52.872;6.520;2022-09-09T15:38:44;20.80;93.80
58666;DHT22;44436;52.872;6.520;2022-09-09T15:41:11;20.80;93.90
58666;DHT22;44436;52.872;6.520;2022-09-09T15:43:38;20.70;93.90
58666;DHT22;44436;52.872;6.520;2022-09-09T15:48:50;20.50;94.10
58666;DHT22;44436;52.872;6.520;2022-09-09T15:51:16;20.40;94.00
58666;DHT22;44436;52.872;6.520;2022-09-09T15:53:42;20.20;94.00
58666;DHT22;44436;52.872;6.520;2022-09-09T15:56:08;20.10;94.10
58666;DHT22;44436;52.872;6.520;2022-09-09T15:58:35;19.90;94.30
58666;DHT22;44436;52.872;6.520;2022-09-09T16:01:03;19.70;94.60
58666;DHT22;44436;52.872;6.520;2022-09-09T16:03:36;19.60;94.90
58666;DHT22;44436;52.872;6.520;2022-09-09T16:06:03;19.40;95.20
58666;DHT22;44436;52.872;6.520;2022-09-09T16:08:33;19.30;95.50
58666;DHT22;44436;52.872;6.520;2022-09-09T16:11:15;19.30;95.70
58666;DHT22;44436;52.872;6.520;2022-09-09T16:13:42;19.30;96.20
58666;DHT22;44436;52.872;6.520;2022-09-09T16:16:10;19.30;96.30
58666;DHT22;44436;52.872;6.520;2022-09-09T16:18:41;19.30;96.40
58666;DHT22;44436;52.872;6.520;2022-09-09T16:21:07;19.40;96.70
58666;DHT22;44436;52.872;6.520;2022-09-09T16:23:36;19.40;96.90
58666;DHT22;44436;52.872;6.520;2022-09-09T16:26:02;19.50;97.10
58666;DHT22;44436;52.872;6.520;2022-09-09T16:28:28;19.60;97.10
58666;DHT22;44436;52.872;6.520;2022-09-09T16:30:54;19.60;96.80
58666;DHT22;44436;52.872;6.520;2022-09-09T16:33:20;19.60;96.90
58666;DHT22;44436;52.872;6.520;2022-09-09T16:35:46;19.60;96.90
58666;DHT22;44436;52.872;6.520;2022-09-09T16:38:12;19.60;97.00
58666;DHT22;44436;52.872;6.520;2022-09-09T16:40:38;19.70;97.00
58666;DHT22;44436;52.872;6.520;2022-09-09T16:43:07;19.70;97.00
58666;DHT22;44436;52.872;6.520;2022-09-09T16:45:32;19.80;97.00
58666;DHT22;44436;52.872;6.520;2022-09-09T16:47:59;19.80;96.80
58666;DHT22;44436;52.872;6.520;2022-09-09T16:50:26;19.80;96.90
58666;DHT22;44436;52.872;6.520;2022-09-09T16:52:52;19.80;96.90
58666;DHT22;44436;52.872;6.520;2022-09-09T16:55:18;19.80;97.00
58666;DHT22;44436;52.872;6.520;2022-09-09T16:57:46;19.80;97.10
58666;DHT22;44436;52.872;6.520;2022-09-09T17:00:14;19.80;97.00
58666;DHT22;44436;52.872;6.520;2022-09-09T17:02:42;19.80;96.90
58666;DHT22;44436;52.872;6.520;2022-09-09T17:05:08;19.80;96.70
58666;DHT22;44436;52.872;6.520;2022-09-09T17:07:34;19.70;96.70
58666;DHT22;44436;52.872;6.520;2022-09-09T17:10:01;19.70;96.70
58666;DHT22;44436;52.872;6.520;2022-09-09T17:12:27;19.70;96.90
58666;DHT22;44436;52.872;6.520;2022-09-09T17:14:53;19.70;96.90
58666;DHT22;44436;52.872;6.520;2022-09-09T17:17:20;19.60;96.90
58666;DHT22;44436;52.872;6.520;2022-09-09T17:19:46;19.60;97.10
58666;DHT22;44436;52.872;6.520;2022-09-09T17:22:12;19.60;97.10
58666;DHT22;44436;52.872;6.520;2022-09-09T17:24:38;19.60;97.20
58666;DHT22;44436;52.872;6.520;2022-09-09T17:27:06;19.50;97.40
58666;DHT22;44436;52.872;6.520;2022-09-09T17:29:31;19.40;97.60
58666;DHT22;44436;52.872;6.520;2022-09-09T17:31:57;19.40;97.80
58666;DHT22;44436;52.872;6.520;2022-09-09T17:34:23;19.40;97.90
58666;DHT22;44436;52.872;6.520;2022-09-09T17:36:50;19.40;97.90
58666;DHT22;44436;52.872;6.520;2022-09-09T17:39:16;19.30;97.90
58666;DHT22;44436;52.872;6.520;2022-09-09T17:41:41;19.30;98.00
58666;DHT22;44436;52.872;6.520;2022-09-09T17:44:08;19.20;98.00
58666;DHT22;44436;52.872;6.520;2022-09-09T17:46:36;19.20;98.00
58666;DHT22;44436;52.872;6.520;2022-09-09T17:49:05;19.10;98.20
58666;DHT22;44436;52.872;6.520;2022-09-09T17:51:33;19.00;98.40
58666;DHT22;44436;52.872;6.520;2022-09-09T17:54:01;19.00;98.50
58666;DHT22;44436;52.872;6.520;2022-09-09T17:56:29;18.90;98.70
58666;DHT22;44436;52.872;6.520;2022-09-09T17:59:00;18.90;98.80
58666;DHT22;44436;52.872;6.520;2022-09-09T18:01:29;18.90;98.90
58666;DHT22;44436;52.872;6.520;2022-09-09T18:03:58;18.90;98.80
58666;DHT22;44436;52.872;6.520;2022-09-09T18:06:28;18.90;99.00
58666;DHT22;44436;52.872;6.520;2022-09-09T18:09:01;18.90;99.00
58666;DHT22;44436;52.872;6.520;2022-09-09T18:11:30;18.90;99.00
58666;DHT22;44436;52.872;6.520;2022-09-09T18:13:59;18.80;99.20
58666;DHT22;44436;52.872;6.520;2022-09-09T18:16:26;18.80;99.30
58666;DHT22;44436;52.872;6.520;2022-09-09T18:18:54;18.80;99.30
58666;DHT22;44436;52.872;6.520;2022-09-09T18:21:20;18.70;99.40
58666;DHT22;44436;52.872;6.520;2022-09-09T18:23:48;18.70;99.50
58666;DHT22;44436;52.872;6.520;2022-09-09T18:26:21;18.70;99.40
58666;DHT22;44436;52.872;6.520;2022-09-09T18:28:53;18.70;99.70
58666;DHT22;44436;52.872;6.520;2022-09-09T18:31:21;18.70;99.80
58666;DHT22;44436;52.872;6.520;2022-09-09T18:33:47;18.60;99.90
58666;DHT22;44436;52.872;6.520;2022-09-09T18:36:44;18.60;99.90
58666;DHT22;44436;52.872;6.520;2022-09-09T18:39:13;18.60;99.90
58666;DHT22;44436;52.872;6.520;2022-09-09T18:41:42;18.50;99.90
58666;DHT22;44436;52.872;6.520;2022-09-09T18:44:14;18.50;99.90
58666;DHT22;44436;52.872;6.520;2022-09-09T18:46:44;18.40;99.90
58666;DHT22;44436;52.872;6.520;2022-09-09T18:49:10;18.40;99.90
58666;DHT22;44436;52.872;6.520;2022-09-09T18:51:37;18.40;99.90
58666;DHT22;44436;52.872;6.520;2022-09-09T18:54:07;18.40;99.90
58666;DHT22;44436;52.872;6.520;2022-09-09T18:56:34;18.30;99.90
58666;DHT22;44436;52.872;6.520;2022-09-09T18:59:03;18.30;99.90
58666;DHT22;44436;52.872;6.520;2022-09-09T19:01:29;18.40;99.90
58666;DHT22;44436;52.872;6.520;2022-09-09T19:03:55;18.30;99.90
58666;DHT22;44436;52.872;6.520;2022-09-09T19:06:24;18.30;99.90
58666;DHT22;44436;52.872;6.520;2022-09-09T19:08:50;18.30;99.90
58666;DHT22;44436;52.872;6.520;2022-09-09T19:11:19;18.20;99.90
58666;DHT22;44436;52.872;6.520;2022-09-09T19:14:14;18.20;99.90
58666;DHT22;44436;52.872;6.520;2022-09-09T19:16:40;18.20;99.90
58666;DHT22;44436;52.872;6.520;2022-09-09T19:19:12;18.20;99.90
58666;DHT22;44436;52.872;6.520;2022-09-09T19:21:38;18.20;99.90
58666;DHT22;44436;52.872;6.520;2022-09-09T19:24:26;18.20;99.90
58666;DHT22;44436;52.872;6.520;2022-09-09T19:26:55;18.10;99.90
58666;DHT22;44436;52.872;6.520;2022-09-09T19:29:24;18.10;99.90
58666;DHT22;44436;52.872;6.520;2022-09-09T19:31:51;18.10;99.90
58666;DHT22;44436;52.872;6.520;2022-09-09T19:34:18;18.10;99.90
58666;DHT22;44436;52.872;6.520;2022-09-09T19:36:45;18.10;99.90
58666;DHT22;44436;52.872;6.520;2022-09-09T19:39:12;18.00;99.90
58666;DHT22;44436;52.872;6.520;2022-09-09T19:41:38;17.90;99.90
58666;DHT22;44436;52.872;6.520;2022-09-09T19:44:06;18.00;99.90
58666;DHT22;44436;52.872;6.520;2022-09-09T19:46:34;18.00;99.90
58666;DHT22;44436;52.872;6.520;2022-09-09T19:49:01;17.90;99.90
58666;DHT22;44436;52.872;6.520;2022-09-09T19:51:29;17.90;99.90
58666;DHT22;44436;52.872;6.520;2022-09-09T19:53:58;17.90;99.90
58666;DHT22;44436;52.872;6.520;2022-09-09T19:56:26;17.90;99.90
58666;DHT22;44436;52.872;6.520;2022-09-09T19:58:52;17.80;99.90
58666;DHT22;44436;52.872;6.520;2022-09-09T20:01:21;17.80;99.90
58666;DHT22;44436;52.872;6.520;2022-09-09T20:03:48;17.80;99.90
58666;DHT22;44436;52.872;6.520;2022-09-09T20:06:18;17.70;99.90
58666;DHT22;44436;52.872;6.520;2022-09-09T20:08:46;17.70;99.90
58666;DHT22;44436;52.872;6.520;2022-09-09T20:11:13;17.70;99.90
58666;DHT22;44436;52.872;6.520;2022-09-09T20:13:39;17.60;99.90
58666;DHT22;44436;52.872;6.520;2022-09-09T20:16:05;17.60;99.90
58666;DHT22;44436;52.872;6.520;2022-09-09T20:18:34;17.60;99.90
58666;DHT22;44436;52.872;6.520;2022-09-09T20:21:03;17.60;99.90
58666;DHT22;44436;52.872;6.520;2022-09-09T20:23:30;17.50;99.90
58666;DHT22;44436;52.872;6.520;2022-09-09T20:26:00;17.50;99.90
58666;DHT22;44436;52.872;6.520;2022-09-09T20:28:27;17.50;99.90
58666;DHT22;44436;52.872;6.520;2022-09-09T20:30:54;17.50;99.90
58666;DHT22;44436;52.872;6.520;2022-09-09T20:33:20;17.30;99.90
58666;DHT22;44436;52.872;6.520;2022-09-09T20:35:47;17.40;99.90
58666;DHT22;44436;52.872;6.520;2022-09-09T20:38:13;17.30;99.90
58666;DHT22;44436;52.872;6.520;2022-09-09T20:40:39;17.30;99.90
58666;DHT22;44436;52.872;6.520;2022-09-09T20:43:09;17.30;99.90
58666;DHT22;44436;52.872;6.520;2022-09-09T20:45:37;17.30;99.90
58666;DHT22;44436;52.872;6.520;2022-09-09T20:48:06;17.20;99.90
58666;DHT22;44436;52.872;6.520;2022-09-09T20:50:36;17.20;99.90
58666;DHT22;44436;52.872;6.520;2022-09-09T20:53:03;17.20;99.90
58666;DHT22;44436;52.872;6.520;2022-09-09T20:55:30;17.20;99.90
58666;DHT22;44436;52.872;6.520;2022-09-09T20:57:56;17.10;99.90
58666;DHT22;44436;52.872;6.520;2022-09-09T21:00:23;17.10;99.90
58666;DHT22;44436;52.872;6.520;2022-09-09T21:02:48;17.10;99.90
58666;DHT22;44436;52.872;6.520;2022-09-09T21:05:15;17.10;99.90
58666;DHT22;44436;52.872;6.520;2022-09-09T21:07:40;17.10;99.90
58666;DHT22;44436;52.872;6.520;2022-09-09T21:10:07;17.10;99.90
58666;DHT22;44436;52.872;6.520;2022-09-09T21:12:32;17.10;99.90
58666;DHT22;44436;52.872;6.520;2022-09-09T21:14:58;17.10;99.90
58666;DHT22;44436;52.872;6.520;2022-09-09T21:17:25;17.10;99.90
58666;DHT22;44436;52.872;6.520;2022-09-09T21:19:51;17.10;99.90
58666;DHT22;44436;52.872;6.520;2022-09-09T21:22:16;17.10;99.90
58666;DHT22;44436;52.872;6.520;2022-09-09T21:24:42;17.10;99.90
58666;DHT22;44436;52.872;6.520;2022-09-09T21:27:08;17.10;99.90
58666;DHT22;44436;52.872;6.520;2022-09-09T21:29:34;17.00;99.90
58666;DHT22;44436;52.872;6.520;2022-09-09T21:31:59;17.00;99.90
58666;DHT22;44436;52.872;6.520;2022-09-09T21:34:25;17.00;99.90
58666;DHT22;44436;52.872;6.520;2022-09-09T21:36:51;17.00;99.90
58666;DHT22;44436;52.872;6.520;2022-09-09T21:39:17;17.00;99.90
58666;DHT22;44436;52.872;6.520;2022-09-09T21:41:43;16.90;99.90
58666;DHT22;44436;52.872;6.520;2022-09-09T21:44:09;16.90;99.90
58666;DHT22;44436;52.872;6.520;2022-09-09T21:46:39;16.90;99.90
58666;DHT22;44436;52.872;6.520;2022-09-09T21:49:07;16.90;99.90
58666;DHT22;44436;52.872;6.520;2022-09-09T21:51:34;16.90;99.90
58666;DHT22;44436;52.872;6.520;2022-09-09T21:54:00;16.90;99.90
58666;DHT22;44436;52.872;6.520;2022-09-09T21:56:25;16.80;99.90
58666;DHT22;44436;52.872;6.520;2022-09-09T21:58:56;16.80;99.90
58666;DHT22;44436;52.872;6.520;2022-09-09T22:01:22;16.60;99.90
58666;DHT22;44436;52.872;6.520;2022-09-09T22:03:49;16.70;99.90
58666;DHT22;44436;52.872;6.520;2022-09-09T22:06:16;16.70;99.90
58666;DHT22;44436;52.872;6.520;2022-09-09T22:08:43;16.70;99.90
58666;DHT22;44436;52.872;6.520;2022-09-09T22:11:12;16.70;99.90
58666;DHT22;44436;52.872;6.520;2022-09-09T22:13:39;16.70;99.90
58666;DHT22;44436;52.872;6.520;2022-09-09T22:16:07;16.60;99.90
58666;DHT22;44436;52.872;6.520;2022-09-09T22:18:33;16.60;99.90
58666;DHT22;44436;52.872;6.520;2022-09-09T22:21:07;16.60;99.90
58666;DHT22;44436;52.872;6.520;2022-09-09T22:23:33;16.60;99.90
58666;DHT22;44436;52.872;6.520;2022-09-09T22:26:00;16.60;99.90
58666;DHT22;44436;52.872;6.520;2022-09-09T22:28:26;16.60;99.90
58666;DHT22;44436;52.872;6.520;2022-09-09T22:30:52;16.60;99.90
58666;DHT22;44436;52.872;6.520;2022-09-09T22:33:17;16.60;99.90
58666;DHT22;44436;52.872;6.520;2022-09-09T22:35:44;16.60;99.90
58666;DHT22;44436;52.872;6.520;2022-09-09T22:38:10;16.60;99.90
58666;DHT22;44436;52.872;6.520;2022-09-09T22:40:37;16.60;99.90
58666;DHT22;44436;52.872;6.520;2022-09-09T22:43:05;16.60;99.90
58666;DHT22;44436;52.872;6.520;2022-09-09T22:45:32;16.50;99.90
58666;DHT22;44436;52.872;6.520;2022-09-09T22:47:59;16.50;99.90
58666;DHT22;44436;52.872;6.520;2022-09-09T22:50:25;16.50;99.90
58666;DHT22;44436;52.872;6.520;2022-09-09T22:52:52;16.50;99.90
58666;DHT22;44436;52.872;6.520;2022-09-09T22:55:18;16.50;99.90
58666;DHT22;44436;52.872;6.520;2022-09-09T22:57:43;16.50;99.90
58666;DHT22;44436;52.872;6.520;2022-09-09T23:00:09;16.50;99.90
58666;DHT22;44436;52.872;6.520;2022-09-09T23:02:37;16.50;99.90
58666;DHT22;44436;52.872;6.520;2022-09-09T23:05:07;16.40;99.90
58666;DHT22;44436;52.872;6.520;2022-09-09T23:07:34;16.40;99.90
58666;DHT22;44436;52.872;6.520;2022-09-09T23:10:00;16.40;99.90
58666;DHT22;44436;52.872;6.520;2022-09-09T23:12:25;16.40;99.90
58666;DHT22;44436;52.872;6.520;2022-09-09T23:14:52;16.40;99.90
58666;DHT22;44436;52.872;6.520;2022-09-09T23:17:19;16.30;99.90
58666;DHT22;44436;52.872;6.520;2022-09-09T23:19:45;16.30;99.90
58666;DHT22;44436;52.872;6.520;2022-09-09T23:22:11;16.30;99.90
58666;DHT22;44436;52.872;6.520;2022-09-09T23:24:39;16.30;99.90
58666;DHT22;44436;52.872;6.520;2022-09-09T23:27:05;16.20;99.90
58666;DHT22;44436;52.872;6.520;2022-09-09T23:29:31;16.20;99.90
58666;DHT22;44436;52.872;6.520;2022-09-09T23:31:57;16.20;99.90
58666;DHT22;44436;52.872;6.520;2022-09-09T23:34:22;16.20;99.90
58666;DHT22;44436;52.872;6.520;2022-09-09T23:36:48;16.20;99.90
58666;DHT22;44436;52.872;6.520;2022-09-09T23:39:13;16.10;99.90
58666;DHT22;44436;52.872;6.520;2022-09-09T23:41:39;16.10;99.90
58666;DHT22;44436;52.872;6.520;2022-09-09T23:44:05;16.10;99.90
58666;DHT22;44436;52.872;6.520;2022-09-09T23:46:32;16.10;99.90
58666;DHT22;44436;52.872;6.520;2022-09-09T23:48:59;16.10;99.90
58666;DHT22;44436;52.872;6.520;2022-09-09T23:51:27;16.10;99.90
58666;DHT22;44436;52.872;6.520;2022-09-09T23:53:56;16.10;99.90
58666;DHT22;44436;52.872;6.520;2022-09-09T23:56:24;16.10;99.90
58666;DHT22;44436;52.872;6.520;2022-09-09T23:58:52;16.10;99.90
